sensor_id;sensor_type;location;lat;lon;timestamp;P1;durP1;ratioP1;P2;durP2;ratioP2
4323;SDS011;2175;51.018;6.994;2023-01-01T00:02:12;42.30;;;24.73;;
4323;SDS011;2175;51.018;6.994;2023-01-01T00:04:38;44.80;;;22.27;;
4323;SDS011;2175;51.018;6.994;2023-01-01T00:07:03;36.67;;;21.90;;
4323;SDS011;2175;51.018;6.994;2023-01-01T00:09:29;48.53;;;25.37;;
4323;SDS011;2175;51.018;6.994;2023-01-01T00:12:13;48.53;;;28.47;;
4323;SDS011;2175;51.018;6.994;2023-01-01T00:14:39;52.03;;;30.10;;
4323;SDS011;2175;51.018;6.994;2023-01-01T00:17:06;51.27;;;30.20;;
4323;SDS011;2175;51.018;6.994;2023-01-01T00:19:32;52.33;;;29.80;;
4323;SDS011;2175;51.018;6.994;2023-01-01T00:21:58;59.27;;;33.43;;
4323;SDS011;2175;51.018;6.994;2023-01-01T00:24:23;46.50;;;27.27;;
4323;SDS011;2175;51.018;6.994;2023-01-01T00:26:49;40.93;;;24.67;;
4323;SDS011;2175;51.018;6.994;2023-01-01T00:29:15;37.53;;;24.00;;
4323;SDS011;2175;51.018;6.994;2023-01-01T00:31:40;32.47;;;20.30;;
4323;SDS011;2175;51.018;6.994;2023-01-01T00:34:06;31.33;;;19.43;;
4323;SDS011;2175;51.018;6.994;2023-01-01T00:36:33;31.87;;;18.07;;
4323;SDS011;2175;51.018;6.994;2023-01-01T00:39:00;35.67;;;18.50;;
4323;SDS011;2175;51.018;6.994;2023-01-01T00:41:26;18.43;;;12.57;;
4323;SDS011;2175;51.018;6.994;2023-01-01T00:43:52;21.67;;;13.20;;
4323;SDS011;2175;51.018;6.994;2023-01-01T00:46:17;24.13;;;12.63;;
4323;SDS011;2175;51.018;6.994;2023-01-01T00:48:43;22.20;;;15.27;;
4323;SDS011;2175;51.018;6.994;2023-01-01T00:51:09;21.23;;;13.83;;
4323;SDS011;2175;51.018;6.994;2023-01-01T00:53:35;22.33;;;11.37;;
4323;SDS011;2175;51.018;6.994;2023-01-01T00:56:00;27.13;;;14.47;;
4323;SDS011;2175;51.018;6.994;2023-01-01T00:58:27;10.83;;;6.10;;
4323;SDS011;2175;51.018;6.994;2023-01-01T01:00:52;14.70;;;6.33;;
4323;SDS011;2175;51.018;6.994;2023-01-01T01:03:18;14.37;;;4.80;;
4323;SDS011;2175;51.018;6.994;2023-01-01T01:08:32;10.90;;;4.40;;
4323;SDS011;2175;51.018;6.994;2023-01-01T01:11:05;21.17;;;5.13;;
4323;SDS011;2175;51.018;6.994;2023-01-01T01:13:33;12.70;;;5.10;;
4323;SDS011;2175;51.018;6.994;2023-01-01T01:15:58;10.67;;;4.67;;
4323;SDS011;2175;51.018;6.994;2023-01-01T01:18:24;7.80;;;4.00;;
4323;SDS011;2175;51.018;6.994;2023-01-01T01:20:51;7.27;;;4.30;;
4323;SDS011;2175;51.018;6.994;2023-01-01T01:23:18;9.20;;;4.47;;
4323;SDS011;2175;51.018;6.994;2023-01-01T01:25:44;8.13;;;4.33;;
4323;SDS011;2175;51.018;6.994;2023-01-01T01:28:10;15.20;;;4.33;;
4323;SDS011;2175;51.018;6.994;2023-01-01T01:30:37;9.37;;;4.10;;
4323;SDS011;2175;51.018;6.994;2023-01-01T01:33:03;10.10;;;4.00;;
4323;SDS011;2175;51.018;6.994;2023-01-01T01:35:29;17.63;;;4.60;;
4323;SDS011;2175;51.018;6.994;2023-01-01T01:37:55;12.30;;;4.20;;
4323;SDS011;2175;51.018;6.994;2023-01-01T01:40:21;4.53;;;3.23;;
4323;SDS011;2175;51.018;6.994;2023-01-01T01:42:47;6.43;;;3.23;;
4323;SDS011;2175;51.018;6.994;2023-01-01T01:45:14;9.13;;;3.80;;
4323;SDS011;2175;51.018;6.994;2023-01-01T01:52:46;11.50;;;3.23;;
4323;SDS011;2175;51.018;6.994;2023-01-01T01:55:36;9.97;;;3.50;;
4323;SDS011;2175;51.018;6.994;2023-01-01T01:58:04;4.27;;;3.17;;
4323;SDS011;2175;51.018;6.994;2023-01-01T02:00:33;5.67;;;2.90;;
4323;SDS011;2175;51.018;6.994;2023-01-01T02:03:07;6.60;;;2.97;;
4323;SDS011;2175;51.018;6.994;2023-01-01T02:05:34;7.50;;;3.10;;
4323;SDS011;2175;51.018;6.994;2023-01-01T02:08:00;4.37;;;2.70;;
4323;SDS011;2175;51.018;6.994;2023-01-01T02:10:28;5.00;;;3.03;;
4323;SDS011;2175;51.018;6.994;2023-01-01T02:12:54;8.23;;;2.80;;
4323;SDS011;2175;51.018;6.994;2023-01-01T02:15:20;7.00;;;2.77;;
4323;SDS011;2175;51.018;6.994;2023-01-01T02:17:56;7.60;;;2.70;;
4323;SDS011;2175;51.018;6.994;2023-01-01T02:31:41;6.07;;;2.47;;
4323;SDS011;2175;51.018;6.994;2023-01-01T02:34:13;6.63;;;2.70;;
4323;SDS011;2175;51.018;6.994;2023-01-01T02:36:44;6.03;;;2.30;;
4323;SDS011;2175;51.018;6.994;2023-01-01T02:39:13;11.00;;;2.77;;
4323;SDS011;2175;51.018;6.994;2023-01-01T02:41:43;6.00;;;2.60;;
4323;SDS011;2175;51.018;6.994;2023-01-01T02:44:11;4.87;;;2.30;;
4323;SDS011;2175;51.018;6.994;2023-01-01T02:46:37;8.50;;;2.57;;
4323;SDS011;2175;51.018;6.994;2023-01-01T02:49:02;4.60;;;2.00;;
4323;SDS011;2175;51.018;6.994;2023-01-01T02:51:41;6.17;;;2.13;;
4323;SDS011;2175;51.018;6.994;2023-01-01T02:56:47;5.57;;;2.30;;
4323;SDS011;2175;51.018;6.994;2023-01-01T03:05:15;6.50;;;2.97;;
4323;SDS011;2175;51.018;6.994;2023-01-01T03:13:25;13.40;;;3.93;;
4323;SDS011;2175;51.018;6.994;2023-01-01T03:19:23;6.87;;;2.80;;
4323;SDS011;2175;51.018;6.994;2023-01-01T03:24:44;10.30;;;2.90;;
4323;SDS011;2175;51.018;6.994;2023-01-01T03:29:55;8.73;;;2.80;;
4323;SDS011;2175;51.018;6.994;2023-01-01T03:32:28;4.80;;;2.40;;
4323;SDS011;2175;51.018;6.994;2023-01-01T03:38:00;6.60;;;2.53;;
4323;SDS011;2175;51.018;6.994;2023-01-01T03:40:29;6.77;;;2.57;;
4323;SDS011;2175;51.018;6.994;2023-01-01T03:43:02;5.40;;;2.20;;
4323;SDS011;2175;51.018;6.994;2023-01-01T03:45:34;4.10;;;2.03;;
4323;SDS011;2175;51.018;6.994;2023-01-01T03:48:03;6.13;;;2.50;;
4323;SDS011;2175;51.018;6.994;2023-01-01T03:50:50;6.93;;;3.00;;
4323;SDS011;2175;51.018;6.994;2023-01-01T03:53:32;4.03;;;2.17;;
4323;SDS011;2175;51.018;6.994;2023-01-01T03:59:29;5.40;;;2.13;;
4323;SDS011;2175;51.018;6.994;2023-01-01T04:02:24;6.83;;;2.53;;
4323;SDS011;2175;51.018;6.994;2023-01-01T04:04:55;11.00;;;2.70;;
4323;SDS011;2175;51.018;6.994;2023-01-01T04:07:24;4.63;;;2.20;;
4323;SDS011;2175;51.018;6.994;2023-01-01T04:09:50;5.63;;;2.80;;
4323;SDS011;2175;51.018;6.994;2023-01-01T04:12:19;8.77;;;2.37;;
4323;SDS011;2175;51.018;6.994;2023-01-01T04:14:46;6.17;;;2.60;;
4323;SDS011;2175;51.018;6.994;2023-01-01T04:17:11;4.33;;;2.30;;
4323;SDS011;2175;51.018;6.994;2023-01-01T04:19:37;7.73;;;2.70;;
4323;SDS011;2175;51.018;6.994;2023-01-01T04:22:03;8.77;;;2.50;;
4323;SDS011;2175;51.018;6.994;2023-01-01T04:24:29;4.97;;;2.17;;
4323;SDS011;2175;51.018;6.994;2023-01-01T04:26:55;10.70;;;3.03;;
4323;SDS011;2175;51.018;6.994;2023-01-01T04:29:20;3.87;;;2.40;;
4323;SDS011;2175;51.018;6.994;2023-01-01T04:31:47;6.57;;;2.70;;
4323;SDS011;2175;51.018;6.994;2023-01-01T04:34:13;11.63;;;3.53;;
4323;SDS011;2175;51.018;6.994;2023-01-01T04:36:39;5.03;;;2.33;;
4323;SDS011;2175;51.018;6.994;2023-01-01T04:39:05;6.70;;;1.80;;
4323;SDS011;2175;51.018;6.994;2023-01-01T04:41:31;8.47;;;2.53;;
4323;SDS011;2175;51.018;6.994;2023-01-01T04:43:56;5.37;;;2.37;;
4323;SDS011;2175;51.018;6.994;2023-01-01T04:46:22;9.17;;;2.33;;
4323;SDS011;2175;51.018;6.994;2023-01-01T04:48:48;7.30;;;3.10;;
4323;SDS011;2175;51.018;6.994;2023-01-01T04:51:15;8.03;;;3.30;;
4323;SDS011;2175;51.018;6.994;2023-01-01T04:53:42;7.63;;;3.00;;
4323;SDS011;2175;51.018;6.994;2023-01-01T04:56:08;8.10;;;2.87;;
4323;SDS011;2175;51.018;6.994;2023-01-01T04:58:39;4.80;;;2.40;;
4323;SDS011;2175;51.018;6.994;2023-01-01T05:01:06;12.07;;;3.23;;
4323;SDS011;2175;51.018;6.994;2023-01-01T05:03:32;5.30;;;2.57;;
4323;SDS011;2175;51.018;6.994;2023-01-01T05:05:59;5.23;;;2.53;;
4323;SDS011;2175;51.018;6.994;2023-01-01T05:08:29;9.40;;;2.70;;
4323;SDS011;2175;51.018;6.994;2023-01-01T05:11:03;7.13;;;2.70;;
4323;SDS011;2175;51.018;6.994;2023-01-01T05:13:37;7.03;;;2.57;;
4323;SDS011;2175;51.018;6.994;2023-01-01T05:16:04;7.50;;;2.60;;
4323;SDS011;2175;51.018;6.994;2023-01-01T05:18:31;6.50;;;2.60;;
4323;SDS011;2175;51.018;6.994;2023-01-01T05:21:01;7.83;;;3.00;;
4323;SDS011;2175;51.018;6.994;2023-01-01T05:23:28;9.83;;;3.37;;
4323;SDS011;2175;51.018;6.994;2023-01-01T05:25:54;8.60;;;2.60;;
4323;SDS011;2175;51.018;6.994;2023-01-01T05:28:20;4.30;;;2.10;;
4323;SDS011;2175;51.018;6.994;2023-01-01T05:30:47;6.40;;;3.07;;
4323;SDS011;2175;51.018;6.994;2023-01-01T05:33:17;10.73;;;3.13;;
4323;SDS011;2175;51.018;6.994;2023-01-01T05:35:43;9.10;;;2.63;;
4323;SDS011;2175;51.018;6.994;2023-01-01T05:38:09;8.80;;;2.27;;
4323;SDS011;2175;51.018;6.994;2023-01-01T05:40:37;6.63;;;2.60;;
4323;SDS011;2175;51.018;6.994;2023-01-01T05:43:03;9.70;;;2.80;;
4323;SDS011;2175;51.018;6.994;2023-01-01T05:45:30;3.50;;;2.27;;
4323;SDS011;2175;51.018;6.994;2023-01-01T05:47:56;7.57;;;2.97;;
4323;SDS011;2175;51.018;6.994;2023-01-01T05:50:21;9.43;;;2.90;;
4323;SDS011;2175;51.018;6.994;2023-01-01T05:52:47;5.10;;;2.43;;
4323;SDS011;2175;51.018;6.994;2023-01-01T05:55:12;5.50;;;2.87;;
4323;SDS011;2175;51.018;6.994;2023-01-01T05:57:38;5.17;;;2.50;;
4323;SDS011;2175;51.018;6.994;2023-01-01T06:00:04;7.77;;;2.93;;
4323;SDS011;2175;51.018;6.994;2023-01-01T06:02:30;6.50;;;2.67;;
4323;SDS011;2175;51.018;6.994;2023-01-01T06:04:55;5.73;;;2.67;;
4323;SDS011;2175;51.018;6.994;2023-01-01T06:07:21;8.40;;;2.60;;
4323;SDS011;2175;51.018;6.994;2023-01-01T06:09:47;9.30;;;2.60;;
4323;SDS011;2175;51.018;6.994;2023-01-01T06:12:12;8.83;;;3.23;;
4323;SDS011;2175;51.018;6.994;2023-01-01T06:14:38;5.73;;;2.60;;
4323;SDS011;2175;51.018;6.994;2023-01-01T06:17:03;10.90;;;3.40;;
4323;SDS011;2175;51.018;6.994;2023-01-01T06:19:29;8.17;;;2.90;;
4323;SDS011;2175;51.018;6.994;2023-01-01T06:21:54;7.03;;;2.87;;
4323;SDS011;2175;51.018;6.994;2023-01-01T06:24:20;5.67;;;2.37;;
4323;SDS011;2175;51.018;6.994;2023-01-01T06:26:45;6.20;;;2.77;;
4323;SDS011;2175;51.018;6.994;2023-01-01T06:29:11;14.23;;;2.97;;
4323;SDS011;2175;51.018;6.994;2023-01-01T06:31:37;7.67;;;2.70;;
4323;SDS011;2175;51.018;6.994;2023-01-01T06:34:02;8.17;;;2.80;;
4323;SDS011;2175;51.018;6.994;2023-01-01T06:36:28;7.30;;;2.67;;
4323;SDS011;2175;51.018;6.994;2023-01-01T06:38:54;5.43;;;2.40;;
4323;SDS011;2175;51.018;6.994;2023-01-01T06:41:22;6.67;;;2.90;;
4323;SDS011;2175;51.018;6.994;2023-01-01T06:43:48;9.23;;;2.97;;
4323;SDS011;2175;51.018;6.994;2023-01-01T06:46:18;10.17;;;2.70;;
4323;SDS011;2175;51.018;6.994;2023-01-01T06:48:47;10.10;;;3.13;;
4323;SDS011;2175;51.018;6.994;2023-01-01T06:51:15;6.43;;;2.67;;
4323;SDS011;2175;51.018;6.994;2023-01-01T06:53:43;5.67;;;2.60;;
4323;SDS011;2175;51.018;6.994;2023-01-01T06:56:09;4.83;;;2.33;;
4323;SDS011;2175;51.018;6.994;2023-01-01T06:58:35;7.83;;;2.70;;
4323;SDS011;2175;51.018;6.994;2023-01-01T07:01:02;7.60;;;2.60;;
4323;SDS011;2175;51.018;6.994;2023-01-01T07:04:02;8.27;;;2.63;;
4323;SDS011;2175;51.018;6.994;2023-01-01T07:06:30;8.57;;;3.03;;
4323;SDS011;2175;51.018;6.994;2023-01-01T07:08:56;11.77;;;2.83;;
4323;SDS011;2175;51.018;6.994;2023-01-01T07:11:22;6.33;;;2.90;;
4323;SDS011;2175;51.018;6.994;2023-01-01T07:13:48;7.60;;;2.90;;
4323;SDS011;2175;51.018;6.994;2023-01-01T07:16:14;4.90;;;2.67;;
4323;SDS011;2175;51.018;6.994;2023-01-01T07:18:40;9.47;;;2.60;;
4323;SDS011;2175;51.018;6.994;2023-01-01T07:21:06;6.40;;;3.10;;
4323;SDS011;2175;51.018;6.994;2023-01-01T07:23:51;11.17;;;3.30;;
4323;SDS011;2175;51.018;6.994;2023-01-01T07:26:20;7.43;;;2.67;;
4323;SDS011;2175;51.018;6.994;2023-01-01T07:28:49;9.63;;;2.97;;
4323;SDS011;2175;51.018;6.994;2023-01-01T07:31:14;6.83;;;2.97;;
4323;SDS011;2175;51.018;6.994;2023-01-01T07:33:40;6.70;;;3.00;;
4323;SDS011;2175;51.018;6.994;2023-01-01T07:36:05;8.80;;;3.10;;
4323;SDS011;2175;51.018;6.994;2023-01-01T07:38:32;11.53;;;2.83;;
4323;SDS011;2175;51.018;6.994;2023-01-01T07:40:57;8.37;;;3.20;;
4323;SDS011;2175;51.018;6.994;2023-01-01T07:43:23;14.33;;;2.83;;
4323;SDS011;2175;51.018;6.994;2023-01-01T07:45:48;8.33;;;2.70;;
4323;SDS011;2175;51.018;6.994;2023-01-01T07:48:14;9.83;;;3.57;;
4323;SDS011;2175;51.018;6.994;2023-01-01T07:50:40;6.77;;;3.00;;
4323;SDS011;2175;51.018;6.994;2023-01-01T07:53:07;11.63;;;2.83;;
4323;SDS011;2175;51.018;6.994;2023-01-01T07:55:32;11.00;;;3.10;;
4323;SDS011;2175;51.018;6.994;2023-01-01T07:57:58;11.67;;;2.87;;
4323;SDS011;2175;51.018;6.994;2023-01-01T08:00:24;13.60;;;3.30;;
4323;SDS011;2175;51.018;6.994;2023-01-01T08:02:50;15.60;;;3.70;;
4323;SDS011;2175;51.018;6.994;2023-01-01T08:05:16;9.70;;;3.50;;
4323;SDS011;2175;51.018;6.994;2023-01-01T08:07:46;7.07;;;3.07;;
4323;SDS011;2175;51.018;6.994;2023-01-01T08:10:12;7.83;;;2.87;;
4323;SDS011;2175;51.018;6.994;2023-01-01T08:12:39;10.53;;;3.33;;
4323;SDS011;2175;51.018;6.994;2023-01-01T08:15:05;10.63;;;3.40;;
4323;SDS011;2175;51.018;6.994;2023-01-01T08:17:31;6.83;;;2.57;;
4323;SDS011;2175;51.018;6.994;2023-01-01T08:19:56;6.10;;;2.43;;
4323;SDS011;2175;51.018;6.994;2023-01-01T08:22:22;9.57;;;3.20;;
4323;SDS011;2175;51.018;6.994;2023-01-01T08:24:47;9.30;;;3.13;;
4323;SDS011;2175;51.018;6.994;2023-01-01T08:27:13;7.77;;;3.00;;
4323;SDS011;2175;51.018;6.994;2023-01-01T08:29:40;8.27;;;2.93;;
4323;SDS011;2175;51.018;6.994;2023-01-01T08:32:06;5.50;;;2.60;;
4323;SDS011;2175;51.018;6.994;2023-01-01T08:34:32;9.23;;;3.20;;
4323;SDS011;2175;51.018;6.994;2023-01-01T08:36:58;6.07;;;2.87;;
4323;SDS011;2175;51.018;6.994;2023-01-01T08:39:26;5.67;;;2.83;;
4323;SDS011;2175;51.018;6.994;2023-01-01T08:41:51;10.00;;;3.10;;
4323;SDS011;2175;51.018;6.994;2023-01-01T08:44:17;10.40;;;2.93;;
4323;SDS011;2175;51.018;6.994;2023-01-01T08:46:43;8.87;;;2.80;;
4323;SDS011;2175;51.018;6.994;2023-01-01T08:49:12;9.43;;;2.70;;
4323;SDS011;2175;51.018;6.994;2023-01-01T08:51:38;7.83;;;2.83;;
4323;SDS011;2175;51.018;6.994;2023-01-01T08:54:03;9.90;;;3.00;;
4323;SDS011;2175;51.018;6.994;2023-01-01T08:56:29;7.47;;;2.70;;
4323;SDS011;2175;51.018;6.994;2023-01-01T08:58:54;13.73;;;2.87;;
4323;SDS011;2175;51.018;6.994;2023-01-01T09:01:20;11.97;;;2.97;;
4323;SDS011;2175;51.018;6.994;2023-01-01T09:03:46;10.70;;;3.23;;
4323;SDS011;2175;51.018;6.994;2023-01-01T09:06:12;8.93;;;2.70;;
4323;SDS011;2175;51.018;6.994;2023-01-01T09:08:38;6.50;;;2.57;;
4323;SDS011;2175;51.018;6.994;2023-01-01T09:11:03;11.17;;;3.13;;
4323;SDS011;2175;51.018;6.994;2023-01-01T09:13:29;10.33;;;3.10;;
4323;SDS011;2175;51.018;6.994;2023-01-01T09:15:56;14.47;;;2.70;;
4323;SDS011;2175;51.018;6.994;2023-01-01T09:18:21;6.10;;;2.73;;
4323;SDS011;2175;51.018;6.994;2023-01-01T09:20:47;11.97;;;2.90;;
4323;SDS011;2175;51.018;6.994;2023-01-01T09:23:13;8.70;;;2.90;;
4323;SDS011;2175;51.018;6.994;2023-01-01T09:25:38;9.10;;;2.87;;
4323;SDS011;2175;51.018;6.994;2023-01-01T09:28:05;8.63;;;2.70;;
4323;SDS011;2175;51.018;6.994;2023-01-01T09:30:33;6.47;;;2.87;;
4323;SDS011;2175;51.018;6.994;2023-01-01T09:33:00;7.17;;;2.90;;
4323;SDS011;2175;51.018;6.994;2023-01-01T09:35:26;6.00;;;2.60;;
4323;SDS011;2175;51.018;6.994;2023-01-01T09:37:52;6.20;;;2.80;;
4323;SDS011;2175;51.018;6.994;2023-01-01T09:40:30;7.47;;;2.40;;
4323;SDS011;2175;51.018;6.994;2023-01-01T09:43:29;5.77;;;2.50;;
4323;SDS011;2175;51.018;6.994;2023-01-01T09:46:01;10.23;;;2.57;;
4323;SDS011;2175;51.018;6.994;2023-01-01T09:48:31;7.83;;;2.63;;
4323;SDS011;2175;51.018;6.994;2023-01-01T09:51:00;7.17;;;2.60;;
4323;SDS011;2175;51.018;6.994;2023-01-01T09:53:40;10.57;;;2.70;;
4323;SDS011;2175;51.018;6.994;2023-01-01T09:56:30;7.27;;;2.83;;
4323;SDS011;2175;51.018;6.994;2023-01-01T09:58:58;7.33;;;2.63;;
4323;SDS011;2175;51.018;6.994;2023-01-01T10:01:32;12.23;;;3.10;;
4323;SDS011;2175;51.018;6.994;2023-01-01T10:12:10;7.33;;;2.70;;
4323;SDS011;2175;51.018;6.994;2023-01-01T10:14:45;9.73;;;2.90;;
4323;SDS011;2175;51.018;6.994;2023-01-01T10:19:55;7.43;;;2.57;;
4323;SDS011;2175;51.018;6.994;2023-01-01T10:22:30;12.73;;;3.03;;
4323;SDS011;2175;51.018;6.994;2023-01-01T10:25:00;15.90;;;2.90;;
4323;SDS011;2175;51.018;6.994;2023-01-01T10:30:24;13.77;;;2.27;;
4323;SDS011;2175;51.018;6.994;2023-01-01T10:32:52;8.37;;;2.57;;
4323;SDS011;2175;51.018;6.994;2023-01-01T10:35:20;9.80;;;2.60;;
4323;SDS011;2175;51.018;6.994;2023-01-01T10:37:54;8.83;;;2.90;;
4323;SDS011;2175;51.018;6.994;2023-01-01T10:40:23;7.53;;;2.70;;
4323;SDS011;2175;51.018;6.994;2023-01-01T10:42:54;6.00;;;2.77;;
4323;SDS011;2175;51.018;6.994;2023-01-01T10:45:33;10.53;;;3.03;;
4323;SDS011;2175;51.018;6.994;2023-01-01T10:55:47;9.30;;;3.20;;
4323;SDS011;2175;51.018;6.994;2023-01-01T10:58:32;10.20;;;2.67;;
4323;SDS011;2175;51.018;6.994;2023-01-01T11:01:09;9.83;;;2.73;;
4323;SDS011;2175;51.018;6.994;2023-01-01T11:03:39;11.33;;;2.97;;
4323;SDS011;2175;51.018;6.994;2023-01-01T11:06:35;12.17;;;2.63;;
4323;SDS011;2175;51.018;6.994;2023-01-01T11:09:05;8.30;;;2.50;;
4323;SDS011;2175;51.018;6.994;2023-01-01T11:11:44;3.67;;;2.10;;
4323;SDS011;2175;51.018;6.994;2023-01-01T11:14:21;5.03;;;2.50;;
4323;SDS011;2175;51.018;6.994;2023-01-01T11:16:51;6.93;;;2.53;;
4323;SDS011;2175;51.018;6.994;2023-01-01T11:19:31;7.13;;;2.93;;
4323;SDS011;2175;51.018;6.994;2023-01-01T11:22:04;5.17;;;2.43;;
4323;SDS011;2175;51.018;6.994;2023-01-01T11:24:31;8.90;;;3.03;;
4323;SDS011;2175;51.018;6.994;2023-01-01T11:27:40;4.97;;;2.20;;
4323;SDS011;2175;51.018;6.994;2023-01-01T11:29:49;8.83;;;3.00;;
4323;SDS011;2175;51.018;6.994;2023-01-01T11:32:27;11.77;;;3.00;;
4323;SDS011;2175;51.018;6.994;2023-01-01T11:35:03;9.53;;;2.47;;
4323;SDS011;2175;51.018;6.994;2023-01-01T11:37:32;8.20;;;3.20;;
4323;SDS011;2175;51.018;6.994;2023-01-01T11:40:03;7.57;;;2.60;;
4323;SDS011;2175;51.018;6.994;2023-01-01T11:42:42;12.23;;;2.60;;
4323;SDS011;2175;51.018;6.994;2023-01-01T11:45:53;9.53;;;3.53;;
4323;SDS011;2175;51.018;6.994;2023-01-01T11:48:14;6.00;;;2.43;;
4323;SDS011;2175;51.018;6.994;2023-01-01T11:53:30;7.10;;;2.60;;
4323;SDS011;2175;51.018;6.994;2023-01-01T12:01:24;4.50;;;2.67;;
4323;SDS011;2175;51.018;6.994;2023-01-01T12:11:59;9.60;;;2.70;;
4323;SDS011;2175;51.018;6.994;2023-01-01T12:14:34;12.40;;;2.90;;
4323;SDS011;2175;51.018;6.994;2023-01-01T12:17:21;7.90;;;2.60;;
4323;SDS011;2175;51.018;6.994;2023-01-01T12:22:36;7.20;;;2.80;;
4323;SDS011;2175;51.018;6.994;2023-01-01T12:25:02;11.73;;;2.80;;
4323;SDS011;2175;51.018;6.994;2023-01-01T12:30:22;10.10;;;3.20;;
4323;SDS011;2175;51.018;6.994;2023-01-01T12:35:45;8.63;;;3.07;;
4323;SDS011;2175;51.018;6.994;2023-01-01T12:44:02;7.40;;;2.73;;
4323;SDS011;2175;51.018;6.994;2023-01-01T12:46:47;15.00;;;3.60;;
4323;SDS011;2175;51.018;6.994;2023-01-01T12:49:24;11.90;;;3.43;;
4323;SDS011;2175;51.018;6.994;2023-01-01T12:59:45;8.97;;;2.90;;
4323;SDS011;2175;51.018;6.994;2023-01-01T13:02:32;9.63;;;2.80;;
4323;SDS011;2175;51.018;6.994;2023-01-01T13:05:02;6.77;;;3.40;;
4323;SDS011;2175;51.018;6.994;2023-01-01T13:07:37;10.53;;;2.93;;
4323;SDS011;2175;51.018;6.994;2023-01-01T13:10:07;8.60;;;2.90;;
4323;SDS011;2175;51.018;6.994;2023-01-01T13:12:45;7.67;;;3.20;;
4323;SDS011;2175;51.018;6.994;2023-01-01T13:15:33;11.37;;;2.90;;
4323;SDS011;2175;51.018;6.994;2023-01-01T13:17:59;12.37;;;3.50;;
4323;SDS011;2175;51.018;6.994;2023-01-01T13:20:25;7.60;;;2.67;;
4323;SDS011;2175;51.018;6.994;2023-01-01T13:22:51;7.50;;;2.67;;
4323;SDS011;2175;51.018;6.994;2023-01-01T13:25:21;9.00;;;3.40;;
4323;SDS011;2175;51.018;6.994;2023-01-01T13:38:46;11.97;;;2.90;;
4323;SDS011;2175;51.018;6.994;2023-01-01T13:49:24;7.90;;;2.93;;
4323;SDS011;2175;51.018;6.994;2023-01-01T14:04:05;10.27;;;2.97;;
4323;SDS011;2175;51.018;6.994;2023-01-01T14:06:38;10.17;;;2.87;;
4323;SDS011;2175;51.018;6.994;2023-01-01T14:09:10;8.47;;;3.07;;
4323;SDS011;2175;51.018;6.994;2023-01-01T14:11:38;8.83;;;3.07;;
4323;SDS011;2175;51.018;6.994;2023-01-01T14:14:26;5.00;;;2.57;;
4323;SDS011;2175;51.018;6.994;2023-01-01T14:16:56;6.20;;;2.80;;
4323;SDS011;2175;51.018;6.994;2023-01-01T14:19:24;8.73;;;2.90;;
4323;SDS011;2175;51.018;6.994;2023-01-01T14:21:51;6.33;;;2.80;;
4323;SDS011;2175;51.018;6.994;2023-01-01T14:24:17;7.90;;;2.70;;
4323;SDS011;2175;51.018;6.994;2023-01-01T14:26:45;7.03;;;2.60;;
4323;SDS011;2175;51.018;6.994;2023-01-01T14:29:22;8.53;;;2.57;;
4323;SDS011;2175;51.018;6.994;2023-01-01T14:31:53;7.60;;;2.57;;
4323;SDS011;2175;51.018;6.994;2023-01-01T14:34:28;7.90;;;2.77;;
4323;SDS011;2175;51.018;6.994;2023-01-01T14:36:56;8.67;;;3.03;;
4323;SDS011;2175;51.018;6.994;2023-01-01T14:39:25;9.30;;;3.23;;
4323;SDS011;2175;51.018;6.994;2023-01-01T14:41:56;9.40;;;3.00;;
4323;SDS011;2175;51.018;6.994;2023-01-01T14:44:27;8.10;;;2.50;;
4323;SDS011;2175;51.018;6.994;2023-01-01T14:46:58;4.77;;;2.40;;
4323;SDS011;2175;51.018;6.994;2023-01-01T14:49:26;8.77;;;3.07;;
4323;SDS011;2175;51.018;6.994;2023-01-01T14:51:56;7.73;;;2.73;;
4323;SDS011;2175;51.018;6.994;2023-01-01T14:54:28;10.13;;;2.47;;
4323;SDS011;2175;51.018;6.994;2023-01-01T14:57:00;8.30;;;2.67;;
4323;SDS011;2175;51.018;6.994;2023-01-01T14:59:27;7.80;;;2.50;;
4323;SDS011;2175;51.018;6.994;2023-01-01T15:02:08;6.70;;;2.57;;
4323;SDS011;2175;51.018;6.994;2023-01-01T15:04:37;10.27;;;2.60;;
4323;SDS011;2175;51.018;6.994;2023-01-01T15:07:04;9.63;;;2.90;;
4323;SDS011;2175;51.018;6.994;2023-01-01T15:09:31;8.27;;;2.50;;
4323;SDS011;2175;51.018;6.994;2023-01-01T15:11:57;7.60;;;2.23;;
4323;SDS011;2175;51.018;6.994;2023-01-01T15:17:03;7.10;;;2.23;;
4323;SDS011;2175;51.018;6.994;2023-01-01T15:19:31;5.83;;;2.00;;
4323;SDS011;2175;51.018;6.994;2023-01-01T15:21:59;7.93;;;2.30;;
4323;SDS011;2175;51.018;6.994;2023-01-01T15:24:25;5.47;;;2.30;;
4323;SDS011;2175;51.018;6.994;2023-01-01T15:26:58;4.30;;;2.20;;
4323;SDS011;2175;51.018;6.994;2023-01-01T15:29:32;6.63;;;2.40;;
4323;SDS011;2175;51.018;6.994;2023-01-01T15:34:31;5.70;;;2.10;;
4323;SDS011;2175;51.018;6.994;2023-01-01T15:37:32;4.93;;;1.83;;
4323;SDS011;2175;51.018;6.994;2023-01-01T15:42:40;4.83;;;1.83;;
4323;SDS011;2175;51.018;6.994;2023-01-01T15:45:20;5.10;;;2.30;;
4323;SDS011;2175;51.018;6.994;2023-01-01T15:47:49;4.10;;;2.43;;
4323;SDS011;2175;51.018;6.994;2023-01-01T15:50:31;5.73;;;1.90;;
4323;SDS011;2175;51.018;6.994;2023-01-01T15:53:05;5.40;;;2.10;;
4323;SDS011;2175;51.018;6.994;2023-01-01T15:55:42;6.53;;;2.50;;
4323;SDS011;2175;51.018;6.994;2023-01-01T16:01:13;5.00;;;2.00;;
4323;SDS011;2175;51.018;6.994;2023-01-01T16:03:47;5.13;;;2.27;;
4323;SDS011;2175;51.018;6.994;2023-01-01T16:06:16;7.20;;;2.80;;
4323;SDS011;2175;51.018;6.994;2023-01-01T16:08:45;8.30;;;3.20;;
4323;SDS011;2175;51.018;6.994;2023-01-01T16:11:11;4.73;;;2.47;;
4323;SDS011;2175;51.018;6.994;2023-01-01T16:13:38;7.70;;;2.80;;
4323;SDS011;2175;51.018;6.994;2023-01-01T16:16:04;6.83;;;3.43;;
4323;SDS011;2175;51.018;6.994;2023-01-01T16:18:50;10.50;;;3.90;;
4323;SDS011;2175;51.018;6.994;2023-01-01T16:21:16;7.90;;;3.30;;
4323;SDS011;2175;51.018;6.994;2023-01-01T16:23:42;6.97;;;3.33;;
4323;SDS011;2175;51.018;6.994;2023-01-01T16:26:08;8.77;;;3.90;;
4323;SDS011;2175;51.018;6.994;2023-01-01T16:28:33;7.83;;;3.70;;
4323;SDS011;2175;51.018;6.994;2023-01-01T16:30:59;6.70;;;3.50;;
4323;SDS011;2175;51.018;6.994;2023-01-01T16:33:24;10.00;;;4.37;;
4323;SDS011;2175;51.018;6.994;2023-01-01T16:35:50;9.57;;;4.10;;
4323;SDS011;2175;51.018;6.994;2023-01-01T16:38:16;6.70;;;3.80;;
4323;SDS011;2175;51.018;6.994;2023-01-01T16:40:41;7.47;;;4.40;;
4323;SDS011;2175;51.018;6.994;2023-01-01T16:43:08;12.63;;;4.10;;
4323;SDS011;2175;51.018;6.994;2023-01-01T16:45:39;7.63;;;3.30;;
4323;SDS011;2175;51.018;6.994;2023-01-01T16:48:05;7.63;;;3.70;;
4323;SDS011;2175;51.018;6.994;2023-01-01T16:50:31;6.23;;;3.63;;
4323;SDS011;2175;51.018;6.994;2023-01-01T16:52:56;7.20;;;4.00;;
4323;SDS011;2175;51.018;6.994;2023-01-01T16:55:22;9.27;;;4.30;;
4323;SDS011;2175;51.018;6.994;2023-01-01T16:57:47;9.00;;;3.93;;
4323;SDS011;2175;51.018;6.994;2023-01-01T17:00:13;6.77;;;4.20;;
4323;SDS011;2175;51.018;6.994;2023-01-01T17:02:39;12.67;;;4.50;;
4323;SDS011;2175;51.018;6.994;2023-01-01T17:05:05;6.20;;;3.90;;
4323;SDS011;2175;51.018;6.994;2023-01-01T17:07:31;8.20;;;4.70;;
4323;SDS011;2175;51.018;6.994;2023-01-01T17:09:56;10.73;;;5.10;;
4323;SDS011;2175;51.018;6.994;2023-01-01T17:12:22;9.10;;;4.70;;
4323;SDS011;2175;51.018;6.994;2023-01-01T17:14:47;15.50;;;4.80;;
4323;SDS011;2175;51.018;6.994;2023-01-01T17:17:13;9.20;;;4.40;;
4323;SDS011;2175;51.018;6.994;2023-01-01T17:19:39;9.73;;;5.37;;
4323;SDS011;2175;51.018;6.994;2023-01-01T17:22:04;12.37;;;5.50;;
4323;SDS011;2175;51.018;6.994;2023-01-01T17:24:30;9.03;;;5.60;;
4323;SDS011;2175;51.018;6.994;2023-01-01T17:26:56;8.60;;;4.53;;
4323;SDS011;2175;51.018;6.994;2023-01-01T17:29:31;9.17;;;5.37;;
4323;SDS011;2175;51.018;6.994;2023-01-01T17:32:05;11.00;;;5.23;;
4323;SDS011;2175;51.018;6.994;2023-01-01T17:34:31;7.63;;;5.17;;
4323;SDS011;2175;51.018;6.994;2023-01-01T17:36:56;12.90;;;5.63;;
4323;SDS011;2175;51.018;6.994;2023-01-01T17:39:22;8.80;;;4.83;;
4323;SDS011;2175;51.018;6.994;2023-01-01T17:41:48;11.33;;;5.40;;
4323;SDS011;2175;51.018;6.994;2023-01-01T17:44:13;10.77;;;5.33;;
4323;SDS011;2175;51.018;6.994;2023-01-01T17:46:39;9.27;;;5.23;;
4323;SDS011;2175;51.018;6.994;2023-01-01T17:49:05;10.67;;;5.77;;
4323;SDS011;2175;51.018;6.994;2023-01-01T17:51:31;6.40;;;5.10;;
4323;SDS011;2175;51.018;6.994;2023-01-01T17:53:57;12.30;;;5.60;;